createdAt,value
2023-02-13T00:00:51.519Z,99.56
2023-02-13T00:01:51.486Z,99.15
2023-02-13T00:02:51.517Z,99.15
2023-02-13T00:03:51.498Z,99.77
2023-02-13T00:04:51.480Z,99.51
2023-02-13T00:05:51.443Z,99.98
2023-02-13T00:06:51.476Z,99.99
2023-02-13T00:07:51.433Z,99.99
2023-02-13T00:08:51.476Z,99.92
2023-02-13T00:09:51.403Z,99.82
2023-02-13T00:10:51.405Z,99.82
2023-02-13T00:11:51.383Z,99.82
2023-02-13T00:12:51.382Z,99.82
2023-02-13T00:13:51.372Z,99.82
2023-02-13T00:14:51.387Z,99.65
2023-02-13T00:15:51.354Z,99.44
2023-02-13T00:16:51.372Z,99.99
2023-02-13T00:17:51.319Z,99.99
2023-02-13T00:18:51.324Z,99.86
2023-02-13T00:19:51.294Z,99.44
2023-02-13T00:20:51.331Z,99.55
2023-02-13T00:21:51.275Z,99.76
2023-02-13T00:22:51.294Z,99.65
2023-02-13T00:23:51.253Z,99.76
2023-02-13T00:24:51.269Z,99.86
2023-02-13T00:25:51.241Z,99.91
2023-02-13T00:26:51.273Z,99.99
2023-02-13T00:27:51.224Z,99.91
2023-02-13T00:28:51.228Z,99.59
2023-02-13T00:29:51.188Z,99.80
2023-02-13T00:30:51.389Z,99.80
2023-02-13T00:31:51.327Z,99.99
2023-02-13T00:32:51.172Z,99.99
2023-02-13T00:33:51.175Z,99.99
2023-02-13T00:34:51.133Z,99.99
2023-02-13T00:35:51.150Z,99.99
2023-02-13T00:36:51.122Z,99.99
2023-02-13T00:37:51.130Z,99.85
2023-02-13T00:38:51.086Z,99.99
2023-02-13T00:39:51.106Z,99.99
2023-02-13T00:40:51.064Z,99.99
2023-02-13T00:41:51.100Z,99.99
2023-02-13T00:42:51.047Z,99.99
2023-02-13T00:43:51.107Z,99.99
2023-02-13T00:44:51.032Z,99.99
2023-02-13T00:45:51.061Z,99.99
2023-02-13T00:46:51.016Z,99.95
2023-02-13T00:47:51.010Z,99.99
2023-02-13T00:48:50.991Z,99.99
2023-02-13T00:49:51.000Z,99.99
2023-02-13T00:50:50.977Z,99.99
2023-02-13T00:51:50.991Z,99.99
2023-02-13T00:52:50.943Z,99.99
2023-02-13T00:53:50.963Z,99.99
2023-02-13T00:54:50.936Z,99.99
2023-02-13T00:55:50.941Z,99.99
2023-02-13T00:56:50.925Z,99.99
2023-02-13T00:57:50.917Z,99.99
2023-02-13T00:58:50.899Z,99.99
2023-02-13T00:59:51.185Z,99.99
2023-02-13T01:00:50.867Z,99.99
2023-02-13T01:01:50.910Z,99.99
2023-02-13T01:02:50.867Z,99.99
2023-02-13T01:03:50.918Z,99.99
2023-02-13T01:04:50.828Z,99.99
2023-02-13T01:05:50.833Z,99.99
2023-02-13T01:06:50.807Z,99.99
2023-02-13T01:07:50.890Z,99.99
2023-02-13T01:08:50.798Z,99.99
2023-02-13T01:09:50.804Z,99.99
2023-02-13T01:10:50.776Z,99.99
2023-02-13T01:11:50.789Z,99.99
2023-02-13T01:12:50.746Z,99.99
2023-02-13T01:13:50.757Z,99.99
2023-02-13T01:14:50.731Z,99.99
2023-02-13T01:15:50.754Z,99.99
2023-02-13T01:16:50.707Z,99.99
2023-02-13T01:17:50.747Z,99.99
2023-02-13T01:18:50.695Z,99.99
2023-02-13T01:19:50.708Z,99.99
2023-02-13T01:20:50.662Z,99.99
2023-02-13T01:21:50.697Z,99.99
2023-02-13T01:22:50.650Z,99.99
2023-02-13T01:23:50.663Z,99.99
2023-02-13T01:24:50.629Z,99.99
2023-02-13T01:25:50.635Z,99.99
2023-02-13T01:26:50.618Z,99.99
2023-02-13T01:27:50.639Z,99.99
2023-02-13T01:28:50.597Z,99.99
2023-02-13T01:29:50.597Z,99.99
2023-02-13T01:30:50.619Z,99.99
2023-02-13T01:31:50.747Z,99.99
2023-02-13T01:32:50.550Z,99.99
2023-02-13T01:33:50.584Z,99.99
2023-02-13T01:34:50.526Z,99.99
2023-02-13T01:35:50.552Z,99.99
2023-02-13T01:36:50.513Z,99.99
2023-02-13T01:37:50.529Z,99.99
2023-02-13T01:38:50.495Z,99.99
2023-02-13T01:39:50.495Z,99.99
2023-02-13T01:40:50.476Z,99.99
2023-02-13T01:41:50.484Z,99.99
2023-02-13T01:42:50.452Z,99.99
2023-02-13T01:43:50.469Z,99.99
2023-02-13T01:44:50.425Z,99.99
2023-02-13T01:45:50.459Z,99.99
2023-02-13T01:46:50.502Z,99.99
2023-02-13T01:47:50.421Z,99.99
2023-02-13T01:48:50.383Z,99.99
2023-02-13T01:49:50.401Z,99.99
2023-02-13T01:50:50.365Z,99.99
2023-02-13T01:51:50.399Z,99.99
2023-02-13T01:52:50.346Z,99.99
2023-02-13T01:53:50.351Z,99.99
2023-02-13T01:54:50.334Z,99.99
2023-02-13T01:55:50.326Z,99.99
2023-02-13T01:56:50.312Z,99.99
2023-02-13T01:57:50.310Z,99.99
2023-02-13T01:58:50.281Z,99.99
2023-02-13T01:59:50.318Z,99.99
2023-02-13T02:00:50.258Z,99.99
2023-02-13T02:01:50.399Z,99.99
2023-02-13T02:02:50.299Z,99.99
2023-02-13T02:03:50.256Z,99.99
2023-02-13T02:04:50.221Z,99.99
2023-02-13T02:05:50.240Z,99.99
2023-02-13T02:06:50.201Z,99.99
2023-02-13T02:07:50.263Z,99.99
2023-02-13T02:08:50.183Z,99.99
2023-02-13T02:09:50.193Z,99.99
2023-02-13T02:10:50.162Z,99.99
2023-02-13T02:11:50.164Z,99.99
2023-02-13T02:12:50.140Z,99.99
2023-02-13T02:13:50.167Z,99.99
2023-02-13T02:14:50.126Z,99.99
2023-02-13T02:15:50.180Z,99.99
2023-02-13T02:16:50.117Z,99.99
2023-02-13T02:17:50.126Z,99.99
2023-02-13T02:18:50.087Z,99.99
2023-02-13T02:19:50.113Z,99.99
2023-02-13T02:20:50.066Z,99.71
2023-02-13T02:21:50.082Z,99.71
2023-02-13T02:22:50.046Z,99.51
2023-02-13T02:23:50.089Z,99.76
2023-02-13T02:24:50.027Z,99.66
2023-02-13T02:25:50.033Z,99.97
2023-02-13T02:26:50.006Z,99.87
2023-02-13T02:27:50.040Z,99.97
2023-02-13T02:28:49.994Z,99.76
2023-02-13T02:29:50.003Z,99.66
2023-02-13T02:30:49.993Z,99.87
2023-02-13T02:31:50.011Z,99.97
2023-02-13T02:32:49.947Z,99.76
2023-02-13T02:33:49.966Z,99.70
2023-02-13T02:34:49.927Z,99.80
2023-02-13T02:35:49.941Z,99.97
2023-02-13T02:36:49.912Z,99.99
2023-02-13T02:37:49.917Z,99.87
2023-02-13T02:38:49.884Z,99.87
2023-02-13T02:39:54.684Z,99.99
2023-02-13T02:40:49.868Z,99.99
2023-02-13T02:41:49.879Z,99.97
2023-02-13T02:42:49.850Z,99.91
2023-02-13T02:43:49.867Z,99.70
2023-02-13T02:44:49.835Z,99.70
2023-02-13T02:45:49.856Z,99.80
2023-02-13T02:46:49.821Z,99.99
2023-02-13T02:47:49.831Z,99.91
2023-02-13T02:48:49.801Z,99.49
2023-02-13T02:49:49.820Z,99.60
2023-02-13T02:50:49.766Z,99.80
2023-02-13T02:51:49.771Z,99.80
2023-02-13T02:52:49.751Z,99.70
2023-02-13T02:53:49.776Z,99.91
2023-02-13T02:54:49.739Z,99.91
2023-02-13T02:55:49.747Z,99.70
2023-02-13T02:56:49.708Z,99.91
2023-02-13T02:57:49.715Z,99.91
2023-02-13T02:58:49.692Z,99.99
2023-02-13T02:59:49.710Z,99.99
2023-02-13T03:00:49.728Z,99.99
2023-02-13T03:01:49.675Z,99.91
2023-02-13T03:02:49.647Z,99.91
2023-02-13T03:03:49.714Z,99.91
2023-02-13T03:04:49.626Z,99.99
2023-02-13T03:05:49.655Z,99.99
2023-02-13T03:06:49.606Z,99.99
2023-02-13T03:07:49.625Z,99.99
2023-02-13T03:08:49.590Z,99.96
2023-02-13T03:09:49.603Z,99.96
2023-02-13T03:10:49.592Z,99.96
2023-02-13T03:11:49.574Z,99.99
2023-02-13T03:12:49.546Z,99.99
2023-02-13T03:13:49.555Z,99.99
2023-02-13T03:14:49.527Z,99.99
2023-02-13T03:15:49.542Z,99.99
2023-02-13T03:16:49.504Z,99.74
2023-02-13T03:17:49.532Z,99.74
2023-02-13T03:18:49.483Z,99.54
2023-02-13T03:19:49.508Z,99.85
2023-02-13T03:20:49.463Z,99.99
2023-02-13T03:21:49.471Z,99.99
2023-02-13T03:22:49.457Z,99.96
2023-02-13T03:23:49.449Z,99.85
2023-02-13T03:24:49.441Z,99.96
2023-02-13T03:25:49.447Z,99.99
2023-02-13T03:26:49.422Z,99.99
2023-02-13T03:27:49.426Z,99.74
2023-02-13T03:28:49.390Z,99.70
2023-02-13T03:29:49.420Z,99.64
2023-02-13T03:30:49.419Z,99.64
2023-02-13T03:31:49.445Z,99.43
2023-02-13T03:32:49.364Z,98.91
2023-02-13T03:33:49.419Z,98.59
2023-02-13T03:34:49.336Z,99.01
2023-02-13T03:35:49.353Z,99.22
2023-02-13T03:36:49.315Z,99.33
2023-02-13T03:37:49.314Z,99.11
2023-02-13T03:38:49.316Z,98.69
2023-02-13T03:39:49.302Z,98.43
2023-02-13T03:40:49.269Z,98.74
2023-02-13T03:41:49.288Z,99.37
2023-02-13T03:42:49.250Z,99.27
2023-02-13T03:43:49.269Z,99.48
2023-02-13T03:44:49.238Z,99.37
2023-02-13T03:45:49.296Z,99.48
2023-02-13T03:46:49.210Z,99.48
2023-02-13T03:47:49.218Z,99.48
2023-02-13T03:48:49.198Z,99.27
2023-02-13T03:49:49.215Z,99.37
2023-02-13T03:50:49.180Z,99.27
2023-02-13T03:51:49.179Z,99.27
2023-02-13T03:52:49.150Z,99.27
2023-02-13T03:53:49.179Z,99.64
2023-02-13T03:54:49.131Z,99.74
2023-02-13T03:55:49.152Z,99.96
2023-02-13T03:56:49.124Z,99.85
2023-02-13T03:57:49.134Z,99.54
2023-02-13T03:58:49.099Z,99.54
2023-02-13T03:59:49.110Z,99.43
2023-02-13T04:00:49.115Z,99.11
2023-02-13T04:01:49.078Z,99.11
2023-02-13T04:02:49.055Z,99.22
2023-02-13T04:03:49.093Z,99.22
2023-02-13T04:04:49.033Z,99.22
2023-02-13T04:05:49.071Z,99.33
2023-02-13T04:06:49.017Z,99.22
2023-02-13T04:07:49.026Z,99.54
2023-02-13T04:08:48.999Z,99.64
2023-02-13T04:09:49.013Z,99.74
2023-02-13T04:10:48.982Z,99.96
2023-02-13T04:11:49.003Z,99.85
2023-02-13T04:12:48.961Z,99.99
2023-02-13T04:13:48.962Z,99.99
2023-02-13T04:14:48.935Z,99.99
2023-02-13T04:15:48.954Z,99.99
2023-02-13T04:16:48.994Z,99.99
2023-02-13T04:17:48.951Z,99.99
2023-02-13T04:18:48.897Z,99.99
2023-02-13T04:19:48.916Z,99.99
2023-02-13T04:20:48.878Z,99.99
2023-02-13T04:21:48.895Z,99.99
2023-02-13T04:22:48.909Z,99.99
2023-02-13T04:23:48.876Z,99.99
2023-02-13T04:24:48.835Z,99.99
2023-02-13T04:25:48.839Z,99.99
2023-02-13T04:26:48.822Z,99.99
2023-02-13T04:27:48.839Z,99.99
2023-02-13T04:28:48.809Z,99.99
2023-02-13T04:29:48.822Z,99.99
2023-02-13T04:30:48.891Z,99.99
2023-02-13T04:31:48.849Z,99.99
2023-02-13T04:32:48.757Z,99.99
2023-02-13T04:33:48.765Z,99.99
2023-02-13T04:34:48.741Z,99.99
2023-02-13T04:35:48.768Z,99.99
2023-02-13T04:36:48.721Z,99.99
2023-02-13T04:37:48.750Z,99.99
2023-02-13T04:38:48.698Z,99.99
2023-02-13T04:39:48.722Z,99.99
2023-02-13T04:40:48.688Z,99.99
2023-02-13T04:41:48.703Z,99.99
2023-02-13T04:42:48.681Z,99.99
2023-02-13T04:43:48.696Z,99.99
2023-02-13T04:44:48.670Z,99.99
2023-02-13T04:45:48.680Z,99.99
2023-02-13T04:46:48.624Z,99.99
2023-02-13T04:47:48.625Z,99.99
2023-02-13T04:48:48.636Z,99.99
2023-02-13T04:49:48.612Z,99.99
2023-02-13T04:50:48.616Z,99.99
2023-02-13T04:51:48.572Z,99.99
2023-02-13T04:52:48.583Z,99.99
2023-02-13T04:53:48.556Z,99.99
2023-02-13T04:54:48.589Z,99.99
2023-02-13T04:55:48.538Z,99.99
2023-02-13T04:56:48.550Z,99.99
2023-02-13T04:57:48.528Z,99.99
2023-02-13T04:58:48.520Z,99.99
2023-02-13T04:59:48.496Z,99.99
2023-02-13T05:00:48.523Z,99.99
2023-02-13T05:01:48.587Z,99.99
2023-02-13T05:02:48.494Z,99.99
2023-02-13T05:03:48.476Z,99.99
2023-02-13T05:04:48.508Z,99.99
2023-02-13T05:05:48.440Z,99.99
2023-02-13T05:06:48.462Z,99.99
2023-02-13T05:07:48.420Z,99.99
2023-02-13T05:08:48.429Z,99.99
2023-02-13T05:09:48.424Z,99.99
2023-02-13T05:10:48.403Z,99.99
2023-02-13T05:11:48.377Z,99.99
2023-02-13T05:12:48.398Z,99.99
2023-02-13T05:13:48.362Z,99.99
2023-02-13T05:14:48.395Z,99.99
2023-02-13T05:15:48.384Z,99.99
2023-02-13T05:16:48.341Z,99.99
2023-02-13T05:17:48.313Z,99.99
2023-02-13T05:18:48.358Z,99.99
2023-02-13T05:19:48.298Z,99.99
2023-02-13T05:20:48.305Z,99.99
2023-02-13T05:21:48.277Z,99.99
2023-02-13T05:22:48.310Z,99.99
2023-02-13T05:23:48.257Z,99.99
2023-02-13T05:24:48.264Z,99.99
2023-02-13T05:25:48.239Z,99.99
2023-02-13T05:26:48.244Z,99.99
2023-02-13T05:27:48.254Z,99.99
2023-02-13T05:28:48.232Z,99.99
2023-02-13T05:29:48.214Z,99.99
2023-02-13T05:30:48.242Z,99.99
2023-02-13T05:31:48.327Z,99.99
2023-02-13T05:32:48.215Z,99.99
2023-02-13T05:33:48.157Z,99.99
2023-02-13T05:34:48.183Z,99.99
2023-02-13T05:35:48.143Z,99.99
2023-02-13T05:36:48.160Z,99.99
2023-02-13T05:37:48.123Z,99.99
2023-02-13T05:38:48.147Z,99.99
2023-02-13T05:39:48.129Z,99.99
2023-02-13T05:40:48.140Z,99.99
2023-02-13T05:41:48.091Z,99.99
2023-02-13T05:42:48.088Z,99.99
2023-02-13T05:43:48.063Z,99.99
2023-02-13T05:44:48.081Z,99.99
2023-02-13T05:45:48.052Z,99.99
2023-02-13T05:46:48.087Z,99.99
2023-02-13T05:47:48.024Z,99.99
2023-02-13T05:48:48.036Z,99.99
2023-02-13T05:49:48.006Z,99.99
2023-02-13T05:50:48.037Z,99.99
2023-02-13T05:51:47.990Z,99.99
2023-02-13T05:52:47.996Z,99.99
2023-02-13T05:53:47.963Z,99.99
2023-02-13T05:54:48.064Z,99.99
2023-02-13T05:55:47.958Z,99.99
2023-02-13T05:56:47.960Z,99.99
2023-02-13T05:57:47.869Z,99.99
2023-02-13T05:58:47.944Z,99.99
2023-02-13T05:59:47.858Z,99.99
2023-02-13T06:00:47.912Z,99.99
2023-02-13T06:01:47.891Z,99.99
2023-02-13T06:02:47.992Z,99.99
2023-02-13T06:03:47.986Z,99.99
2023-02-13T06:04:47.883Z,99.99
2023-02-13T06:05:47.857Z,99.99
2023-02-13T06:06:47.860Z,99.99
2023-02-13T06:07:47.793Z,99.99
2023-02-13T06:08:47.773Z,99.99
2023-02-13T06:09:47.756Z,99.99
2023-02-13T06:10:47.772Z,99.99
2023-02-13T06:11:47.739Z,99.99
2023-02-13T06:12:47.735Z,99.99
2023-02-13T06:13:47.716Z,99.99
2023-02-13T06:14:47.735Z,99.99
2023-02-13T06:15:47.733Z,99.99
2023-02-13T06:16:47.713Z,99.99
2023-02-13T06:17:47.677Z,99.99
2023-02-13T06:18:47.700Z,99.99
2023-02-13T06:19:47.666Z,99.99
2023-02-13T06:20:47.670Z,99.99
2023-02-13T06:21:47.647Z,99.99
2023-02-13T06:22:47.651Z,99.99
2023-02-13T06:23:47.609Z,99.99
2023-02-13T06:24:47.629Z,99.99
2023-02-13T06:25:47.591Z,99.99
2023-02-13T06:26:47.619Z,99.99
2023-02-13T06:27:47.568Z,99.99
2023-02-13T06:28:47.591Z,99.99
2023-02-13T06:29:47.562Z,99.99
2023-02-13T06:30:48.593Z,99.99
2023-02-13T06:31:47.899Z,99.99
2023-02-13T06:32:48.338Z,99.99
2023-02-13T06:33:47.581Z,99.99
2023-02-13T06:34:48.453Z,99.99
2023-02-13T06:35:47.504Z,99.99
2023-02-13T06:36:47.701Z,99.99
2023-02-13T06:37:47.521Z,99.99
2023-02-13T06:38:47.492Z,99.99
2023-02-13T06:39:47.468Z,99.99
2023-02-13T06:40:47.476Z,99.99
2023-02-13T06:41:47.821Z,99.99
2023-02-13T06:42:47.490Z,99.99
2023-02-13T06:43:48.219Z,99.99
2023-02-13T06:44:47.443Z,99.99
2023-02-13T06:45:47.483Z,99.99
2023-02-13T06:46:47.504Z,99.99
2023-02-13T06:47:47.386Z,99.99
2023-02-13T06:48:47.401Z,99.99
2023-02-13T06:49:47.409Z,99.99
2023-02-13T06:50:47.392Z,99.99
2023-02-13T06:51:47.338Z,99.99
2023-02-13T06:52:47.363Z,99.99
2023-02-13T06:53:47.334Z,99.99
2023-02-13T06:54:48.281Z,99.99
2023-02-13T06:55:47.307Z,99.99
2023-02-13T06:56:47.309Z,99.99
2023-02-13T06:57:47.305Z,99.99
2023-02-13T06:58:47.303Z,99.99
2023-02-13T06:59:47.266Z,99.99
2023-02-13T07:00:47.308Z,99.99
2023-02-13T07:01:47.272Z,99.99
2023-02-13T07:02:47.325Z,99.99
2023-02-13T07:03:47.243Z,99.99
2023-02-13T07:04:47.250Z,99.99
2023-02-13T07:05:47.218Z,99.99
2023-02-13T07:06:47.217Z,99.99
2023-02-13T07:07:47.196Z,99.99
2023-02-13T07:08:47.280Z,99.99
2023-02-13T07:09:47.169Z,99.99
2023-02-13T07:10:47.166Z,99.99
2023-02-13T07:11:47.155Z,99.99
2023-02-13T07:12:53.933Z,99.99
2023-02-13T07:13:47.126Z,99.99
2023-02-13T07:14:47.128Z,99.99
2023-02-13T07:15:47.152Z,99.99
2023-02-13T07:16:47.140Z,99.99
2023-02-13T07:17:47.090Z,99.99
2023-02-13T07:18:47.101Z,99.99
2023-02-13T07:19:47.058Z,99.99
2023-02-13T07:20:47.083Z,99.99
2023-02-13T07:21:47.056Z,99.99
2023-02-13T07:22:47.057Z,99.99
2023-02-13T07:23:47.054Z,99.99
2023-02-13T07:24:47.039Z,99.99
2023-02-13T07:25:47.014Z,99.99
2023-02-13T07:26:47.020Z,99.99
2023-02-13T07:27:46.979Z,99.99
2023-02-13T07:28:46.998Z,99.99
2023-02-13T07:29:46.982Z,99.99
2023-02-13T07:30:47.014Z,99.99
2023-02-13T07:31:47.004Z,99.99
2023-02-13T07:32:46.982Z,99.93
2023-02-13T07:33:46.916Z,99.61
2023-02-13T07:35:00.871Z,99.51
2023-02-13T07:35:46.913Z,99.51
2023-02-13T07:36:46.928Z,99.46
2023-02-13T07:37:46.880Z,99.35
2023-02-13T07:38:46.922Z,99.04
2023-02-13T07:39:46.863Z,99.04
2023-02-13T07:40:46.878Z,99.04
2023-02-13T07:41:46.843Z,98.52
2023-02-13T07:42:46.858Z,98.31
2023-02-13T07:43:46.819Z,98.41
2023-02-13T07:44:46.856Z,98.41
2023-02-13T07:45:46.799Z,98.52
2023-02-13T07:46:46.868Z,98.41
2023-02-13T07:47:46.793Z,98.31
2023-02-13T07:48:46.795Z,98.21
2023-02-13T07:49:46.760Z,98.26
2023-02-13T07:50:46.778Z,98.16
2023-02-13T07:51:46.750Z,98.16
2023-02-13T07:52:46.756Z,98.16
2023-02-13T07:53:46.717Z,97.95
2023-02-13T07:54:46.740Z,97.80
2023-02-13T07:55:46.712Z,97.49
2023-02-13T07:56:46.714Z,96.96
2023-02-13T07:57:46.679Z,96.86
2023-02-13T07:58:46.697Z,96.23
2023-02-13T07:59:46.663Z,96.61
2023-02-13T08:00:46.659Z,96.81
2023-02-13T08:01:46.698Z,96.61
2023-02-13T08:02:46.662Z,95.72
2023-02-13T08:03:46.633Z,95.41
2023-02-13T08:04:46.730Z,95.41
2023-02-13T08:05:46.598Z,95.09
2023-02-13T08:06:46.626Z,95.35
2023-02-13T08:07:46.574Z,95.56
2023-02-13T08:08:46.600Z,95.83
2023-02-13T08:09:46.560Z,95.31
2023-02-13T08:10:46.571Z,95.09
2023-02-13T08:11:46.553Z,95.09
2023-02-13T08:12:46.552Z,95.09
2023-02-13T08:13:46.517Z,94.78
2023-02-13T08:14:46.570Z,94.99
2023-02-13T08:15:46.485Z,95.41
2023-02-13T08:16:46.564Z,95.51
2023-02-13T08:17:46.478Z,95.62
2023-02-13T08:18:46.488Z,95.51
2023-02-13T08:19:46.452Z,95.20
2023-02-13T08:20:46.452Z,95.37
2023-02-13T08:21:46.419Z,95.47
2023-02-13T08:22:46.448Z,95.26
2023-02-13T08:23:46.440Z,95.05
2023-02-13T08:24:46.405Z,94.99
2023-02-13T08:25:46.382Z,95.15
2023-02-13T08:26:46.387Z,95.26
2023-02-13T08:27:46.357Z,94.95
2023-02-13T08:28:46.458Z,95.47
2023-02-13T08:29:46.336Z,95.64
2023-02-13T08:30:46.376Z,95.21
2023-02-13T08:31:46.359Z,94.27
2023-02-13T08:32:54.291Z,94.17
2023-02-13T08:33:46.305Z,93.96
2023-02-13T08:34:46.353Z,93.65
2023-02-13T08:35:46.283Z,93.96
2023-02-13T08:36:46.282Z,94.49
2023-02-13T08:37:47.601Z,95.01
2023-02-13T08:38:46.403Z,95.01
2023-02-13T08:39:46.276Z,95.43
2023-02-13T08:40:46.263Z,95.84
2023-02-13T08:41:46.217Z,95.43
2023-02-13T08:42:46.233Z,95.21
2023-02-13T08:43:46.205Z,94.80
2023-02-13T08:44:46.223Z,95.01
2023-02-13T08:45:46.216Z,95.01
2023-02-13T08:46:46.286Z,94.86
2023-02-13T08:47:46.152Z,94.86
2023-02-13T08:48:46.178Z,95.07
2023-02-13T08:49:46.135Z,94.86
2023-02-13T08:50:46.144Z,94.96
2023-02-13T08:51:46.124Z,95.03
2023-02-13T08:52:46.147Z,94.92
2023-02-13T08:53:46.176Z,94.71
2023-02-13T08:54:46.115Z,94.71
2023-02-13T08:55:46.098Z,94.25
2023-02-13T08:56:46.125Z,93.63
2023-02-13T08:57:46.058Z,94.15
2023-02-13T08:58:46.059Z,93.84
2023-02-13T08:59:46.055Z,93.21
2023-02-13T09:00:46.021Z,92.90
2023-02-13T09:01:46.027Z,92.47
2023-02-13T09:02:46.053Z,92.79
2023-02-13T09:03:46.049Z,93.00
2023-02-13T09:04:45.983Z,92.69
2023-02-13T09:05:45.983Z,92.90
2023-02-13T09:06:45.966Z,93.00
2023-02-13T09:07:45.995Z,93.00
2023-02-13T09:08:45.941Z,93.21
2023-02-13T09:09:45.948Z,92.96
2023-02-13T09:10:45.926Z,92.65
2023-02-13T09:11:45.930Z,92.54
2023-02-13T09:12:45.927Z,92.58
2023-02-13T09:13:47.140Z,93.21
2023-02-13T09:14:45.880Z,93.57
2023-02-13T09:15:45.898Z,94.15
2023-02-13T09:16:45.891Z,94.09
2023-02-13T09:17:45.863Z,94.67
2023-02-13T09:18:45.849Z,94.67
2023-02-13T09:19:45.862Z,94.57
2023-02-13T09:20:45.825Z,94.67
2023-02-13T09:21:45.831Z,94.63
2023-02-13T09:22:45.815Z,94.31
2023-02-13T09:23:45.823Z,94.31
2023-02-13T09:24:45.791Z,93.37
2023-02-13T09:25:45.836Z,93.44
2023-02-13T09:26:45.764Z,93.02
2023-02-13T09:27:45.763Z,93.12
2023-02-13T09:28:45.812Z,93.12
2023-02-13T09:29:45.743Z,93.02
2023-02-13T09:30:45.797Z,92.87
2023-02-13T09:31:45.897Z,92.35
2023-02-13T09:32:45.699Z,91.52
2023-02-13T09:33:45.720Z,92.03
2023-02-13T09:34:45.689Z,92.03
2023-02-13T09:35:45.692Z,92.29
2023-02-13T09:36:45.654Z,92.81
2023-02-13T09:37:45.668Z,93.44
2023-02-13T09:38:45.639Z,93.12
2023-02-13T09:39:45.666Z,92.97
2023-02-13T09:40:45.634Z,92.77
2023-02-13T09:41:45.620Z,92.56
2023-02-13T09:42:45.593Z,92.46
2023-02-13T09:43:45.602Z,92.62
2023-02-13T09:44:45.576Z,92.31
2023-02-13T09:45:45.594Z,92.21
2023-02-13T09:46:45.619Z,92.21
2023-02-13T09:47:45.576Z,92.31
2023-02-13T09:48:45.551Z,92.62
2023-02-13T09:49:45.542Z,92.72
2023-02-13T09:50:45.513Z,92.72
2023-02-13T09:51:45.572Z,92.52
2023-02-13T09:52:45.487Z,92.72
2023-02-13T09:53:45.516Z,92.83
2023-02-13T09:54:45.482Z,93.04
2023-02-13T09:55:45.488Z,92.89
2023-02-13T09:56:45.447Z,91.89
2023-02-13T09:57:45.470Z,92.37
2023-02-13T09:58:45.447Z,92.52
2023-02-13T09:59:45.436Z,92.72
2023-02-13T10:00:45.423Z,93.14
2023-02-13T10:01:45.457Z,92.89
2023-02-13T10:02:45.393Z,92.37
2023-02-13T10:03:45.405Z,92.37
2023-02-13T10:04:45.418Z,92.12
2023-02-13T10:05:45.388Z,91.71
2023-02-13T10:06:45.354Z,91.08
2023-02-13T10:07:45.364Z,91.91
2023-02-13T10:08:45.326Z,91.56
2023-02-13T10:09:45.352Z,90.93
2023-02-13T10:10:45.307Z,90.31
2023-02-13T10:11:45.319Z,91.14
2023-02-13T10:12:45.292Z,90.62
2023-02-13T10:13:45.318Z,89.79
2023-02-13T10:14:45.283Z,89.89
2023-02-13T10:15:45.319Z,90.20
2023-02-13T10:16:45.236Z,91.39
2023-02-13T10:17:45.241Z,91.71
2023-02-13T10:18:45.221Z,91.66
2023-02-13T10:19:45.242Z,90.93
2023-02-13T10:20:45.201Z,90.93
2023-02-13T10:21:45.202Z,90.97
2023-02-13T10:22:45.176Z,91.08
2023-02-13T10:23:45.193Z,92.22
2023-02-13T10:24:45.169Z,92.08
2023-02-13T10:25:45.168Z,91.14
2023-02-13T10:26:45.167Z,91.00
2023-02-13T10:27:45.155Z,90.16
2023-02-13T10:28:45.151Z,89.60
2023-02-13T10:29:45.150Z,89.25
2023-02-13T10:30:45.179Z,88.84
2023-02-13T10:31:45.434Z,88.07
2023-02-13T10:32:45.069Z,87.65
2023-02-13T10:33:45.077Z,86.88
2023-02-13T10:34:45.064Z,86.78
2023-02-13T10:35:45.069Z,86.57
2023-02-13T10:36:45.031Z,85.95
2023-02-13T10:37:45.054Z,86.57
2023-02-13T10:38:45.013Z,86.57
2023-02-13T10:39:45.017Z,86.26
2023-02-13T10:40:44.989Z,85.85
2023-02-13T10:41:45.014Z,85.64
2023-02-13T10:42:44.971Z,86.57
2023-02-13T10:43:44.986Z,86.78
2023-02-13T10:44:44.949Z,86.57
2023-02-13T10:45:44.975Z,86.61
2023-02-13T10:46:44.938Z,87.27
2023-02-13T10:47:44.933Z,87.13
2023-02-13T10:48:44.912Z,86.82
2023-02-13T10:49:44.925Z,86.47
2023-02-13T10:50:44.896Z,86.36
2023-02-13T10:51:44.912Z,85.71
2023-02-13T10:52:44.876Z,85.50
2023-02-13T10:53:44.886Z,84.38
2023-02-13T10:54:44.844Z,83.72
2023-02-13T10:55:44.856Z,82.95
2023-02-13T10:56:44.826Z,82.60
2023-02-13T10:57:44.863Z,81.74
2023-02-13T10:58:44.810Z,80.98
2023-02-13T10:59:44.802Z,80.36
2023-02-13T11:00:44.788Z,79.91
2023-02-13T11:01:44.799Z,79.46
2023-02-13T11:02:44.755Z,78.39
2023-02-13T11:03:44.770Z,77.42
2023-02-13T11:04:44.759Z,76.35
2023-02-13T11:05:44.738Z,75.74
2023-02-13T11:06:44.715Z,75.91
2023-02-13T11:07:44.725Z,77.15
2023-02-13T11:08:44.692Z,77.08
2023-02-13T11:09:44.710Z,76.67
2023-02-13T11:10:44.669Z,75.63
2023-02-13T11:11:44.698Z,75.49
2023-02-13T11:12:44.650Z,75.09
2023-02-13T11:13:44.667Z,75.12
2023-02-13T11:14:44.655Z,76.22
2023-02-13T11:15:44.653Z,78.46
2023-02-13T11:16:44.619Z,80.05
2023-02-13T11:17:44.625Z,80.53
2023-02-13T11:18:44.592Z,79.11
2023-02-13T11:19:44.604Z,77.39
2023-02-13T11:20:44.659Z,76.56
2023-02-13T11:21:44.640Z,76.25
2023-02-13T11:22:44.541Z,75.36
2023-02-13T11:23:44.571Z,73.71
2023-02-13T11:24:44.520Z,71.37
2023-02-13T11:25:44.542Z,69.32
2023-02-13T11:26:44.496Z,70.28
2023-02-13T11:27:44.500Z,70.42
2023-02-13T11:28:44.544Z,69.26
2023-02-13T11:29:44.494Z,68.10
2023-02-13T11:30:44.459Z,67.35
2023-02-13T11:31:44.557Z,66.28
2023-02-13T11:32:44.425Z,65.03
2023-02-13T11:33:44.457Z,64.72
2023-02-13T11:34:44.421Z,65.00
2023-02-13T11:35:44.433Z,64.89
2023-02-13T11:36:44.394Z,63.94
2023-02-13T11:37:44.406Z,62.88
2023-02-13T11:38:44.388Z,62.96
2023-02-13T11:39:44.376Z,62.17
2023-02-13T11:40:44.353Z,63.43
2023-02-13T11:41:44.378Z,64.38
2023-02-13T11:42:44.322Z,65.54
2023-02-13T11:43:44.343Z,65.54
2023-02-13T11:44:44.310Z,65.36
2023-02-13T11:45:44.321Z,66.45
2023-02-13T11:46:44.379Z,67.51
2023-02-13T11:47:44.292Z,68.13
2023-02-13T11:48:44.253Z,68.06
2023-02-13T11:49:44.275Z,66.36
2023-02-13T11:50:44.241Z,64.42
2023-02-13T11:51:44.250Z,62.73
2023-02-13T11:52:44.214Z,60.83
2023-02-13T11:53:44.232Z,60.16
2023-02-13T11:54:44.196Z,58.80
2023-02-13T11:55:44.218Z,58.50
2023-02-13T11:57:03.298Z,58.29
2023-02-13T11:57:44.194Z,58.19
2023-02-13T11:58:44.179Z,58.60
2023-02-13T11:59:44.168Z,58.19
2023-02-13T12:00:44.138Z,57.21
2023-02-13T12:01:44.154Z,56.58
2023-02-13T12:02:44.203Z,56.24
2023-02-13T12:03:44.160Z,55.30
2023-02-13T12:04:44.095Z,55.51
2023-02-13T12:05:44.098Z,54.24
2023-02-13T12:06:44.087Z,54.13
2023-02-13T12:07:44.085Z,54.54
2023-02-13T12:08:44.050Z,54.13
2023-02-13T12:09:44.049Z,53.39
2023-02-13T12:10:44.023Z,52.89
2023-02-13T12:11:44.037Z,53.52
2023-02-13T12:12:44.012Z,52.89
2023-02-13T12:13:44.082Z,53.29
2023-02-13T12:14:43.982Z,53.52
2023-02-13T12:15:44.026Z,53.39
2023-02-13T12:16:43.970Z,53.50
2023-02-13T12:17:44.000Z,52.53
2023-02-13T12:18:43.947Z,51.72
2023-02-13T12:19:43.983Z,51.29
2023-02-13T12:20:43.936Z,51.09
2023-02-13T12:21:43.936Z,50.27
2023-02-13T12:22:43.918Z,51.49
2023-02-13T12:23:43.901Z,51.39
2023-02-13T12:24:43.879Z,51.06
2023-02-13T12:25:43.890Z,50.78
2023-02-13T12:26:43.853Z,51.42
2023-02-13T12:27:43.885Z,51.11
2023-02-13T12:28:43.858Z,50.78
2023-02-13T12:29:43.851Z,49.97
2023-02-13T12:30:43.852Z,50.45
2023-02-13T12:31:43.863Z,50.04
2023-02-13T12:32:43.790Z,50.25
2023-02-13T12:33:43.816Z,50.35
2023-02-13T12:34:43.767Z,49.95
2023-02-13T12:35:43.787Z,49.84
2023-02-13T12:36:43.752Z,50.15
2023-02-13T12:37:43.757Z,50.65
2023-02-13T12:38:43.730Z,49.41
2023-02-13T12:39:43.736Z,49.08
2023-02-13T12:40:43.709Z,49.41
2023-02-13T12:41:43.703Z,48.78
2023-02-13T12:42:43.682Z,48.88
2023-02-13T12:43:43.703Z,48.55
2023-02-13T12:44:43.665Z,48.05
2023-02-13T12:45:43.747Z,48.15
2023-02-13T12:46:43.633Z,48.27
2023-02-13T12:47:43.637Z,48.88
2023-02-13T12:48:43.637Z,48.27
2023-02-13T12:49:43.650Z,48.68
2023-02-13T12:50:43.613Z,48.27
2023-02-13T12:51:43.598Z,49.21
2023-02-13T12:52:43.574Z,48.58